Time;durP1;ratioP1;P1;durP2;ratioP2;P2;SDS_P1;SDS_P2;PMS_P1;PMS_P2;Temp;Humidity;BMP_temperature;BMP_pressure;BME280_temperature;BME280_humidity;BME280_pressure;Samples;Min_cycle;Max_cycle;Signal;HPM_P1;HPM_P2
2022/05/23 00:00:49;;;;;;;0.10;0.10;;;12.80;1.00;226.50;231333.00;;;;5071381;28;20346;-71
2022/05/23 00:03:20;;;;;;;0.00;0.00;;;12.70;1.00;226.50;231333.00;;;;5071920;28;20186;-71
2022/05/23 00:05:48;;;;;;;0.10;0.10;;;12.60;1.00;226.50;231333.00;;;;5071452;28;20208;-70
2022/05/23 00:08:17;;;;;;;0.10;0.10;;;12.60;1.00;226.50;231333.00;;;;5071916;28;20267;-69
2022/05/23 00:10:45;;;;;;;0.10;0.10;;;12.70;1.00;226.50;231333.00;;;;5069717;28;20729;-68
2022/05/23 00:13:14;;;;;;;0.10;0.10;;;12.70;1.00;226.50;231333.00;;;;5071469;28;20201;-68
2022/05/23 00:15:42;;;;;;;0.00;0.00;;;12.60;1.00;226.50;231333.00;;;;5070429;28;20260;-69
2022/05/23 00:18:12;;;;;;;0.00;0.00;;;12.60;1.00;226.50;231333.00;;;;5071354;28;20254;-69
2022/05/23 00:20:40;;;;;;;0.10;0.10;;;12.60;1.00;226.50;231333.00;;;;5070895;28;20679;-70
2022/05/23 00:23:08;;;;;;;0.00;0.00;;;12.60;1.00;226.50;231333.00;;;;5071631;28;20610;-69
2022/05/23 00:25:37;;;;;;;0.10;0.10;;;12.60;1.00;226.50;231333.00;;;;5070549;28;20197;-69
2022/05/23 00:28:06;;;;;;;0.00;0.00;;;12.60;99.90;226.50;231333.00;;;;5070512;28;20229;-70
2022/05/23 00:30:34;;;;;;;0.10;0.10;;;12.60;99.90;226.50;231333.00;;;;5063600;28;20210;-70
2022/05/23 00:35:56;;;;;;;0.00;0.00;;;12.40;1.00;226.50;231333.00;;;;5070430;28;20197;-67
2022/05/23 00:38:25;;;;;;;0.00;0.00;;;12.40;1.00;226.50;231333.00;;;;5071637;28;20207;-67
2022/05/23 00:43:56;;;;;;;0.10;0.10;;;12.40;1.00;226.50;231333.00;;;;5066809;28;20244;-68
2022/05/23 00:46:24;;;;;;;0.05;0.05;;;12.20;1.00;226.50;231333.00;;;;5058646;28;20923;-68
2022/05/23 00:48:53;;;;;;;0.08;0.08;;;11.90;1.00;226.50;231333.00;;;;5033473;28;20199;-67
2022/05/23 00:51:23;;;;;;;0.10;0.10;;;11.70;1.00;226.50;231333.00;;;;5048067;28;20194;-67
2022/05/23 00:53:57;;;;;;;0.05;0.05;;;11.70;1.00;226.50;231333.00;;;;5071429;28;20193;-67
2022/05/23 00:56:43;;;;;;;0.10;0.10;;;11.60;1.00;226.50;231333.00;;;;5067910;28;20198;-70
2022/05/23 00:59:19;;;;;;;0.10;0.10;;;11.60;1.00;226.50;231333.00;;;;5071662;28;20244;-70
2022/05/23 01:01:48;;;;;;;0.00;0.00;;;11.50;1.00;226.50;231333.00;;;;5069568;28;20197;-70
2022/05/23 01:04:17;;;;;;;0.10;0.10;;;11.40;19.80;226.50;231333.00;;;;5068898;28;20216;-70
2022/05/23 01:06:47;;;;;;;0.10;0.10;;;11.50;23.50;226.50;231333.00;;;;5070126;28;20251;-70
2022/05/23 01:09:15;;;;;;;0.10;0.10;;;11.50;1.00;226.50;231333.00;;;;5069579;28;20291;-70
2022/05/23 01:11:44;;;;;;;0.00;0.00;;;11.60;1.00;226.50;231333.00;;;;5069491;28;20189;-68
2022/05/23 01:14:12;;;;;;;0.10;0.10;;;11.60;1.00;226.50;231333.00;;;;5069585;28;20635;-68
2022/05/23 01:16:41;;;;;;;0.00;0.00;;;11.60;1.00;226.50;231333.00;;;;5051872;28;20197;-70
2022/05/23 01:19:10;;;;;;;0.00;0.00;;;11.60;1.00;226.50;231333.00;;;;5068830;28;20225;-71
2022/05/23 01:21:53;;;;;;;0.10;0.10;;;11.50;1.00;226.50;231333.00;;;;5052108;28;20575;-68
2022/05/23 01:24:38;;;;;;;0.00;0.00;;;11.50;1.00;226.50;231333.00;;;;5068998;28;20282;-69
2022/05/23 01:27:11;;;;;;;0.10;0.10;;;11.40;1.00;226.50;231333.00;;;;5065520;28;20226;-69
2022/05/23 01:29:45;;;;;;;0.10;0.10;;;11.50;1.00;226.50;231333.00;;;;5059059;28;20305;-69
2022/05/23 01:32:14;;;;;;;0.10;0.10;;;11.50;1.00;226.50;231333.00;;;;5072837;28;20197;-69
2022/05/23 01:34:50;;;;;;;0.10;0.10;;;11.50;1.00;226.50;231333.00;;;;5055684;28;20205;-69
2022/05/23 01:37:21;;;;;;;0.10;0.10;;;11.40;1.00;226.50;231333.00;;;;5056470;28;20288;-69
2022/05/23 01:40:00;;;;;;;0.00;0.00;;;11.60;1.00;226.50;231333.00;;;;5056422;28;20213;-69
2022/05/23 01:42:45;;;;;;;0.03;0.03;;;11.50;1.00;226.50;231333.00;;;;5070224;28;20210;-69
2022/05/23 01:45:18;;;;;;;0.10;0.10;;;11.60;1.00;226.50;231333.00;;;;5048135;28;20619;-69
2022/05/23 01:47:47;;;;;;;0.10;0.10;;;11.70;1.00;226.50;231333.00;;;;5055785;28;20756;-69
2022/05/23 01:50:15;;;;;;;0.10;0.10;;;11.50;1.00;226.50;231333.00;;;;5073892;28;20585;-69
2022/05/23 01:52:54;;;;;;;0.10;0.10;;;11.40;1.00;226.50;231333.00;;;;5047969;28;20678;-68
2022/05/23 01:55:32;;;;;;;0.10;0.10;;;11.30;1.00;226.50;231333.00;;;;5052661;28;20557;-69
2022/05/23 02:01:13;;;;;;;0.08;0.08;;;11.20;1.00;226.50;231333.00;;;;5056460;28;20205;-69
2022/05/23 02:01:15;;;;;;;0.00;0.00;;;11.00;1.00;226.50;231333.00;;;;5068687;28;20598;-70
2022/05/23 02:03:55;;;;;;;0.00;0.00;;;11.00;1.00;226.50;231333.00;;;;5053649;28;20255;-69
2022/05/23 02:06:28;;;;;;;0.10;0.10;;;10.90;1.00;226.50;231333.00;;;;5066075;28;20201;-69
2022/05/23 02:09:02;;;;;;;0.10;0.10;;;10.90;1.00;226.50;231333.00;;;;5064962;28;20218;-69
2022/05/23 02:11:36;;;;;;;0.03;0.03;;;10.90;1.00;226.50;231333.00;;;;5055411;28;20535;-70
2022/05/23 02:14:06;;;;;;;0.00;0.00;;;10.80;1.00;226.50;231333.00;;;;5056283;28;20213;-70
2022/05/23 02:16:41;;;;;;;0.10;0.10;;;10.90;1.00;226.50;231333.00;;;;5071564;28;20201;-70
2022/05/23 02:19:10;;;;;;;0.10;0.10;;;10.90;1.00;226.50;231333.00;;;;5069360;28;20237;-70
2022/05/23 02:21:38;;;;;;;0.10;0.10;;;11.10;1.00;226.50;231333.00;;;;5071364;28;20402;-69
2022/05/23 02:24:08;;;;;;;0.10;0.10;;;11.10;1.00;226.50;231333.00;;;;5054337;28;20648;-69
2022/05/23 02:26:36;;;;;;;0.10;0.10;;;11.10;1.00;226.50;231333.00;;;;5052462;28;20569;-69
2022/05/23 02:29:22;;;;;;;0.10;0.10;;;10.90;1.00;226.50;231333.00;;;;5064923;28;20606;-69
2022/05/23 02:31:50;;;;;;;0.10;0.10;;;10.70;1.00;226.50;231333.00;;;;5063583;28;20194;-69
2022/05/23 02:34:20;;;;;;;0.03;0.03;;;10.50;1.00;226.50;231333.00;;;;5052590;28;20225;-69
2022/05/23 02:36:53;;;;;;;0.10;0.10;;;10.50;23.50;226.50;231333.00;;;;5051303;28;20198;-69
2022/05/23 02:39:32;;;;;;;0.10;0.10;;;10.50;54.50;226.50;231333.00;;;;5057335;28;20206;-69
2022/05/23 02:42:01;;;;;;;0.10;0.10;;;10.40;88.40;226.50;231333.00;;;;5073510;28;20273;-69
2022/05/23 02:44:32;;;;;;;0.10;0.10;;;10.50;99.90;226.50;231333.00;;;;5072367;28;20218;-69
2022/05/23 02:47:04;;;;;;;0.10;0.10;;;10.50;91.20;226.50;231333.00;;;;5060723;28;20193;-69
2022/05/23 02:49:37;;;;;;;0.03;0.03;;;10.60;48.00;226.50;231333.00;;;;5054929;28;20226;-69
2022/05/23 02:52:07;;;;;;;0.10;0.10;;;10.60;38.10;226.50;231333.00;;;;5071895;28;20198;-70
2022/05/23 02:54:56;;;;;;;0.10;0.10;;;10.60;56.80;226.50;231333.00;;;;5072824;28;20232;-69
2022/05/23 02:57:24;;;;;;;0.10;0.10;;;10.70;25.00;226.50;231333.00;;;;5072809;28;20612;-69
2022/05/23 02:59:55;;;;;;;0.10;0.10;;;10.80;1.00;226.50;231333.00;;;;5054727;28;20218;-69
2022/05/23 03:05:11;;;;;;;0.00;0.00;;;10.60;10.50;226.50;231333.00;;;;5068926;28;20193;-69
2022/05/23 03:07:40;;;;;;;0.10;0.10;;;10.50;12.60;226.50;231333.00;;;;5070731;28;20202;-69
2022/05/23 03:10:09;;;;;;;0.10;0.10;;;10.40;35.00;226.50;231333.00;;;;5054246;28;20221;-69
2022/05/23 03:12:38;;;;;;;0.10;0.10;;;10.30;74.40;226.50;231333.00;;;;5054760;28;20285;-69
2022/05/23 03:15:10;;;;;;;0.00;0.00;;;10.30;99.60;226.50;231333.00;;;;5054939;28;20228;-69
2022/05/23 03:17:39;;;;;;;0.10;0.10;;;10.30;97.30;226.50;231333.00;;;;5070739;28;20201;-70
2022/05/23 03:20:11;;;;;;;0.10;0.10;;;10.30;90.80;226.50;231333.00;;;;5053138;28;20283;-69
2022/05/23 03:28:15;;;;;;;0.10;0.10;;;10.40;14.00;226.50;231333.00;;;;5048702;28;20217;-69
2022/05/23 03:30:45;;;;;;;0.00;0.00;;;10.30;48.80;226.50;231333.00;;;;5056097;28;20217;-69
2022/05/23 03:33:15;;;;;;;0.10;0.10;;;10.30;55.40;226.50;231333.00;;;;5072322;28;20194;-69
2022/05/23 03:35:46;;;;;;;0.10;0.10;;;10.30;38.80;226.50;231333.00;;;;5053903;28;20205;-69
2022/05/23 03:38:15;;;;;;;0.10;0.10;;;10.40;42.60;226.50;231333.00;;;;5054139;28;20229;-69
2022/05/23 03:40:44;;;;;;;0.10;0.10;;;10.50;16.20;226.50;231333.00;;;;5071455;28;20718;-69
2022/05/23 03:43:14;;;;;;;0.00;0.00;;;10.50;15.70;226.50;231333.00;;;;5048506;28;20202;-69
2022/05/23 03:45:45;;;;;;;0.00;0.00;;;10.40;12.40;226.50;231333.00;;;;5066089;28;20716;-69
2022/05/23 03:48:14;;;;;;;0.10;0.10;;;10.40;24.70;226.50;231333.00;;;;5050818;28;20205;-70
2022/05/23 03:50:43;;;;;;;0.10;0.10;;;10.50;44.50;226.50;231333.00;;;;5053086;28;20228;-70
2022/05/23 03:53:12;;;;;;;0.10;0.10;;;10.60;7.40;226.50;231333.00;;;;5053658;28;20643;-70
2022/05/23 03:55:46;;;;;;;0.10;0.10;;;10.60;5.00;226.50;231333.00;;;;5052930;28;20235;-70
2022/05/23 03:58:22;;;;;;;0.10;0.10;;;10.60;5.70;226.50;231333.00;;;;5054356;28;20603;-70
2022/05/23 04:01:14;;;;;;;0.10;0.10;;;10.60;24.60;226.50;231333.00;;;;5068134;28;20737;-70
2022/05/23 04:03:45;;;;;;;0.10;0.10;;;10.70;8.60;226.50;231333.00;;;;5033955;28;20194;-70
2022/05/23 04:06:15;;;;;;;0.10;0.10;;;10.80;1.00;226.50;231333.00;;;;5068580;28;20577;-69
2022/05/23 04:09:00;;;;;;;0.10;0.10;;;10.80;1.00;226.50;231333.00;;;;5069468;28;20222;-69
2022/05/23 04:11:29;;;;;;;0.10;0.10;;;10.90;1.00;226.50;231333.00;;;;5053361;28;20284;-69
2022/05/23 04:14:00;;;;;;;0.10;0.10;;;11.00;1.00;226.50;231333.00;;;;5071730;28;20215;-70
2022/05/23 04:16:34;;;;;;;0.10;0.10;;;11.20;1.00;226.50;231333.00;;;;5052861;28;20727;-70
2022/05/23 04:19:05;;;;;;;0.10;0.10;;;11.30;1.00;226.50;231333.00;;;;5068759;28;20205;-70
2022/05/23 04:21:39;;;;;;;0.10;0.10;;;11.40;1.00;226.50;231333.00;;;;5049526;28;20258;-70
2022/05/23 04:24:08;;;;;;;0.10;0.10;;;11.50;1.00;226.50;231333.00;;;;5053308;28;20709;-70
2022/05/23 04:26:38;;;;;;;0.10;0.10;;;11.50;1.00;226.50;231333.00;;;;5051170;28;20197;-70
2022/05/23 04:29:08;;;;;;;0.10;0.10;;;11.60;1.00;226.50;231333.00;;;;5070455;28;20220;-70
2022/05/23 04:31:39;;;;;;;0.10;0.10;;;11.70;1.00;226.50;231333.00;;;;5067060;28;20593;-70
2022/05/23 04:37:27;;;;;;;0.10;0.10;;;11.80;1.00;226.50;231333.00;;;;5026980;28;20230;-69
2022/05/23 04:39:56;;;;;;;0.10;0.10;;;11.90;1.00;226.50;231333.00;;;;5011490;28;20218;-70
2022/05/23 04:42:25;;;;;;;0.10;0.10;;;11.90;1.00;226.50;231333.00;;;;5045268;28;20285;-70
2022/05/23 04:44:53;;;;;;;0.00;0.00;;;12.00;1.00;226.50;231333.00;;;;5071092;28;20189;-70
2022/05/23 04:50:13;;;;;;;0.10;0.10;;;11.80;1.00;226.50;231333.00;;;;5069254;28;20636;-70
2022/05/23 04:52:48;;;;;;;0.10;0.10;;;11.80;1.00;226.50;231333.00;;;;5069829;28;20217;-70
2022/05/23 04:55:19;;;;;;;0.10;0.10;;;11.90;1.00;226.50;231333.00;;;;5069196;28;20655;-70
2022/05/23 04:57:48;;;;;;;0.10;0.10;;;11.90;1.00;226.50;231333.00;;;;5070300;28;20189;-70
2022/05/23 05:00:20;;;;;;;0.10;0.10;;;11.90;1.00;226.50;231333.00;;;;5069372;28;20221;-69
2022/05/23 05:02:59;;;;;;;0.10;0.10;;;12.00;1.00;226.50;231333.00;;;;5073228;28;20296;-69
2022/05/23 05:05:41;;;;;;;0.10;0.10;;;12.20;1.00;226.50;231333.00;;;;5056285;28;20284;-69
2022/05/23 05:08:11;;;;;;;0.03;0.03;;;12.40;1.00;226.50;231333.00;;;;5073748;28;20201;-70
2022/05/23 05:10:42;;;;;;;0.00;0.00;;;12.40;1.00;226.50;231333.00;;;;5057445;28;20232;-70
2022/05/23 05:13:11;;;;;;;0.10;0.10;;;12.50;1.00;226.50;231333.00;;;;5056317;28;20206;-71
2022/05/23 05:15:42;;;;;;;0.10;0.10;;;12.70;1.00;226.50;231333.00;;;;5055234;28;20197;-70
2022/05/23 05:18:23;;;;;;;0.03;0.03;;;12.80;1.00;226.50;231333.00;;;;5075175;28;20188;-70
2022/05/23 05:21:06;;;;;;;0.10;0.10;;;12.70;1.00;226.50;231333.00;;;;5073460;28;20267;-69
2022/05/23 05:23:54;;;;;;;0.00;0.00;;;12.70;1.00;226.50;231333.00;;;;5068539;28;20251;-70
2022/05/23 05:26:34;;;;;;;0.10;0.10;;;12.80;1.00;226.50;231333.00;;;;5052713;28;20560;-70
2022/05/23 05:29:02;;;;;;;0.10;0.10;;;12.90;1.00;226.50;231333.00;;;;5058722;28;20724;-69
2022/05/23 05:31:40;;;;;;;0.08;0.08;;;13.00;1.00;226.50;231333.00;;;;5056507;28;20297;-71
2022/05/23 05:34:14;;;;;;;0.10;0.10;;;13.10;99.90;226.50;231333.00;;;;5069821;28;20243;-71
2022/05/23 05:36:50;;;;;;;0.10;0.10;;;13.20;99.90;226.50;231333.00;;;;5055503;28;20202;-71
2022/05/23 05:39:26;;;;;;;0.00;0.00;;;13.20;99.90;226.50;231333.00;;;;5073726;28;20217;-71
2022/05/23 05:42:03;;;;;;;0.00;0.00;;;13.20;99.90;226.50;231333.00;;;;5074785;28;20193;-73
2022/05/23 05:44:45;;;;;;;0.10;0.10;;;13.30;99.90;226.50;231333.00;;;;5072939;28;20263;-71
2022/05/23 05:47:19;;;;;;;0.00;0.00;;;13.40;99.90;226.50;231333.00;;;;5072813;28;20197;-71
2022/05/23 05:50:12;;;;;;;0.10;0.10;;;13.60;99.90;226.50;231333.00;;;;5073055;28;20316;-71
2022/05/23 05:53:06;;;;;;;0.00;0.00;;;13.80;99.90;226.50;231333.00;;;;5071295;28;20252;-71
2022/05/23 05:55:38;;;;;;;0.00;0.00;;;14.10;99.90;226.50;231333.00;;;;5072432;28;20197;-71
2022/05/23 05:58:07;;;;;;;0.00;0.00;;;14.20;1.00;226.50;231333.00;;;;5056615;28;20193;-71
2022/05/23 06:00:43;;;;;;;0.10;0.10;;;14.40;1.00;226.50;231333.00;;;;5072993;28;20224;-71
2022/05/23 06:03:11;;;;;;;0.10;0.10;;;14.50;1.00;226.50;231333.00;;;;5073477;28;20456;-71
2022/05/23 06:11:35;;;;;;;0.00;0.00;;;14.80;1.00;226.50;231333.00;;;;5066421;28;20696;-71
2022/05/23 06:14:16;;;;;;;0.00;0.00;;;14.90;1.00;226.50;231333.00;;;;5057058;28;20205;-71
2022/05/23 06:16:47;;;;;;;0.10;0.10;;;15.10;99.90;226.50;231333.00;;;;5055323;28;20198;-71
2022/05/23 06:19:22;;;;;;;0.10;0.10;;;15.20;56.70;226.50;231333.00;;;;5062364;28;20233;-71
2022/05/23 06:22:05;;;;;;;0.00;0.00;;;15.40;1.00;226.50;231333.00;;;;5052962;28;20194;-72
2022/05/23 06:24:36;;;;;;;0.00;0.00;;;15.50;1.00;226.50;231333.00;;;;5052866;28;20191;-71
2022/05/23 06:27:09;;;;;;;0.00;0.00;;;15.70;1.00;226.50;231333.00;;;;5053370;28;20724;-71
2022/05/23 06:29:41;;;;;;;0.03;0.03;;;15.80;1.00;226.50;231333.00;;;;5053494;28;20280;-71
2022/05/23 06:32:30;;;;;;;0.10;0.10;;;15.90;99.90;226.50;231333.00;;;;5052961;28;20289;-69
2022/05/23 06:34:59;;;;;;;0.00;0.00;;;16.00;99.90;226.50;231333.00;;;;5052329;28;20667;-69
2022/05/23 06:37:35;;;;;;;0.00;0.00;;;16.10;1.00;226.50;231333.00;;;;5051812;28;20239;-69
2022/05/23 06:40:30;;;;;;;0.00;0.00;;;16.20;1.00;226.50;231333.00;;;;5030521;28;20226;-70
2022/05/23 06:43:24;;;;;;;0.00;0.00;;;16.30;1.00;226.50;231333.00;;;;5057026;28;20234;-70
2022/05/23 06:46:22;;;;;;;0.10;0.10;;;16.40;99.90;226.50;231333.00;;;;5055386;28;20603;-70
2022/05/23 06:49:14;;;;;;;0.00;0.00;;;16.40;1.00;226.50;231333.00;;;;5044674;28;20233;-69
2022/05/23 06:52:06;;;;;;;0.00;0.00;;;16.50;1.00;226.50;231333.00;;;;5055428;28;20679;-69
2022/05/23 06:54:51;;;;;;;0.00;0.00;;;16.60;1.00;226.50;231333.00;;;;5072426;28;20663;-69
2022/05/23 06:57:24;;;;;;;0.00;0.00;;;16.60;99.90;226.50;231333.00;;;;5068222;28;20197;-70
2022/05/23 06:59:53;;;;;;;0.00;0.00;;;16.70;1.00;226.50;231333.00;;;;5063121;28;20225;-68
2022/05/23 07:02:21;;;;;;;0.00;0.00;;;16.80;1.00;226.50;231333.00;;;;5051796;28;20202;-70
2022/05/23 07:13:41;;;;;;;0.00;0.00;;;17.00;1.00;226.50;231333.00;;;;5073209;28;20197;-69
2022/05/23 07:16:10;;;;;;;0.00;0.00;;;17.00;1.00;226.50;231333.00;;;;5072053;28;20578;-69
2022/05/23 07:18:43;;;;;;;0.00;0.00;;;17.00;1.00;226.50;231333.00;;;;5047792;28;20256;-69
2022/05/23 07:21:20;;;;;;;0.00;0.00;;;17.00;1.00;226.50;231333.00;;;;5051549;28;20407;-69
2022/05/23 07:24:01;;;;;;;0.00;0.00;;;17.10;1.00;226.50;231333.00;;;;5051535;28;20236;-69
2022/05/23 07:26:41;;;;;;;0.00;0.00;;;17.10;1.00;226.50;231333.00;;;;5051129;28;20283;-69
2022/05/23 07:29:09;;;;;;;0.00;0.00;;;17.20;1.00;226.50;231333.00;;;;5053467;28;20222;-69
2022/05/23 07:31:38;;;;;;;0.00;0.00;;;17.30;1.00;226.50;231333.00;;;;5037229;28;20230;-69
2022/05/23 07:34:07;;;;;;;0.00;0.00;;;17.30;1.00;226.50;231333.00;;;;5052473;28;20198;-69
2022/05/23 07:36:36;;;;;;;0.00;0.00;;;17.30;1.00;226.50;231333.00;;;;5051945;28;20198;-69
2022/05/23 07:39:09;;;;;;;0.00;0.00;;;17.40;1.00;226.50;231333.00;;;;5053702;28;20205;-69
2022/05/23 07:41:48;;;;;;;0.00;0.00;;;17.50;99.90;226.50;231333.00;;;;5053895;28;20206;-70
2022/05/23 07:44:22;;;;;;;0.00;0.00;;;17.50;99.90;226.50;231333.00;;;;5053723;28;20558;-70
2022/05/23 07:46:53;;;;;;;0.00;0.00;;;17.60;99.90;226.50;231333.00;;;;5054710;28;20566;-70
2022/05/23 07:49:23;;;;;;;0.00;0.00;;;17.70;99.90;226.50;231333.00;;;;5058756;28;20446;-69
2022/05/23 07:52:06;;;;;;;0.00;0.00;;;17.70;99.90;226.50;231333.00;;;;5056768;28;20226;-69
2022/05/23 08:00:32;;;;;;;0.00;0.00;;;17.70;99.90;226.50;231333.00;;;;5072068;28;20218;-69
2022/05/23 08:03:16;;;;;;;0.00;0.00;;;17.70;99.90;226.50;231333.00;;;;5055020;28;20758;-69
2022/05/23 08:06:10;;;;;;;0.00;0.00;;;17.90;99.90;226.50;231333.00;;;;5038323;28;20208;-71
2022/05/23 08:08:38;;;;;;;0.00;0.00;;;18.00;99.90;226.50;231333.00;;;;5058138;28;20190;-69
2022/05/23 08:11:09;;;;;;;0.00;0.00;;;18.10;99.90;226.50;231333.00;;;;5039530;28;20326;-69
2022/05/23 08:14:04;;;;;;;0.00;0.00;;;18.20;99.90;226.50;231333.00;;;;5053295;28;20696;-69
2022/05/23 08:16:38;;;;;;;0.00;0.00;;;18.40;99.90;226.50;231333.00;;;;5051253;28;20615;-69
2022/05/23 08:19:08;;;;;;;0.00;0.00;;;18.40;99.90;226.50;231333.00;;;;5050996;28;20656;-69
2022/05/23 08:21:47;;;;;;;0.00;0.00;;;18.60;99.90;226.50;231333.00;;;;5033967;28;20216;-69
2022/05/23 08:24:15;;;;;;;0.00;0.00;;;18.80;99.90;226.50;231333.00;;;;5052375;28;20285;-69
2022/05/23 08:26:45;;;;;;;0.00;0.00;;;19.00;99.90;226.50;231333.00;;;;5033403;28;20208;-69
2022/05/23 08:29:15;;;;;;;0.00;0.00;;;19.30;99.90;226.50;231333.00;;;;5050223;28;20222;-69
2022/05/23 08:32:00;;;;;;;0.00;0.00;;;19.50;99.90;226.50;231333.00;;;;5034117;28;20222;-69
2022/05/23 08:34:39;;;;;;;0.00;0.00;;;19.70;99.90;226.50;231333.00;;;;5033475;28;20293;-70
2022/05/23 08:37:09;;;;;;;0.00;0.00;;;19.90;97.70;226.50;231333.00;;;;5033267;28;20602;-71
2022/05/23 08:39:37;;;;;;;0.00;0.00;;;20.00;60.00;226.50;231333.00;;;;5033776;28;20250;-68
2022/05/23 08:42:20;;;;;;;0.00;0.00;;;19.90;41.10;226.50;231333.00;;;;5033816;28;20285;-69
2022/05/23 08:45:13;;;;;;;0.00;0.00;;;19.80;50.50;226.50;231333.00;;;;5033639;28;20201;-69
2022/05/23 08:47:56;;;;;;;0.00;0.00;;;19.70;43.30;226.50;231333.00;;;;5049232;28;20205;-68
2022/05/23 08:50:42;;;;;;;0.00;0.00;;;19.90;48.10;226.50;231333.00;;;;5033491;28;20226;-70
2022/05/23 08:53:19;;;;;;;0.00;0.00;;;20.00;54.70;226.50;231333.00;;;;5033662;28;20227;-69
2022/05/23 08:56:21;;;;;;;0.00;0.00;;;20.30;39.00;226.50;231333.00;;;;5047683;28;20202;-69
2022/05/23 08:58:59;;;;;;;0.00;0.00;;;20.60;30.60;226.50;231333.00;;;;5033273;28;20221;-69
2022/05/23 09:01:44;;;;;;;0.00;0.00;;;20.50;27.80;226.50;231333.00;;;;5033229;28;20197;-72
2022/05/23 09:04:23;;;;;;;0.00;0.00;;;20.50;29.60;226.50;231333.00;;;;5033557;28;20205;-69
2022/05/23 09:06:54;;;;;;;0.00;0.00;;;20.50;31.30;226.50;231333.00;;;;5032975;28;20202;-69
2022/05/23 09:09:25;;;;;;;0.00;0.00;;;20.70;26.80;226.50;231333.00;;;;5050889;28;20695;-69
2022/05/23 09:12:03;;;;;;;0.00;0.00;;;20.80;17.10;226.50;231333.00;;;;5051217;28;20225;-69
2022/05/23 09:14:31;;;;;;;0.00;0.00;;;20.80;15.80;226.50;231333.00;;;;5050892;28;20190;-69
2022/05/23 09:17:01;;;;;;;0.00;0.00;;;20.90;14.30;226.50;231333.00;;;;5050584;28;20195;-71
2022/05/23 09:19:55;;;;;;;0.00;0.00;;;20.90;14.00;226.50;231333.00;;;;5050817;28;20301;-69
2022/05/23 09:22:38;;;;;;;0.00;0.00;;;20.90;11.10;226.50;231333.00;;;;5051171;28;20616;-69
2022/05/23 09:25:08;;;;;;;0.00;0.00;;;20.90;5.60;226.50;231333.00;;;;5051055;28;20664;-69
2022/05/23 09:27:42;;;;;;;0.00;0.00;;;21.00;1.00;226.50;231333.00;;;;5050400;28;20537;-69
2022/05/23 09:30:17;;;;;;;0.00;0.00;;;21.00;4.60;226.50;231333.00;;;;5050803;28;20218;-69
2022/05/23 09:32:55;;;;;;;0.00;0.00;;;21.00;2.70;226.50;231333.00;;;;5051043;28;20218;-69
2022/05/23 09:35:26;;;;;;;0.00;0.00;;;21.10;1.00;226.50;231333.00;;;;5033383;28;20240;-69
2022/05/23 09:38:16;;;;;;;0.00;0.00;;;21.10;2.20;226.50;231333.00;;;;5050742;28;20190;-69
2022/05/23 09:40:58;;;;;;;0.00;0.00;;;21.20;18.70;226.50;231333.00;;;;5049691;28;20209;-70
2022/05/23 09:49:19;;;;;;;0.00;0.00;;;21.40;1.00;226.50;231333.00;;;;5054215;28;20242;-70
2022/05/23 09:51:54;;;;;;;0.00;0.00;;;21.10;1.00;226.50;231333.00;;;;5054661;28;20245;-70
2022/05/23 09:54:36;;;;;;;0.00;0.00;;;21.00;1.00;226.50;231333.00;;;;5054669;28;20612;-70
2022/05/23 09:57:19;;;;;;;0.00;0.00;;;21.10;13.70;226.50;231333.00;;;;5058591;28;20198;-69
2022/05/23 09:59:58;;;;;;;0.00;0.00;;;21.20;12.20;226.50;231333.00;;;;5061163;28;20225;-70
2022/05/23 10:02:38;;;;;;;0.00;0.00;;;21.10;1.00;226.50;231333.00;;;;5074643;28;20663;-70
2022/05/23 10:05:26;;;;;;;0.00;0.00;;;21.10;1.00;226.50;231333.00;;;;5058495;28;20202;-69
2022/05/23 10:08:00;;;;;;;0.00;0.00;;;21.00;1.00;226.50;231333.00;;;;5054502;28;20191;-70
2022/05/23 10:10:32;;;;;;;0.00;0.00;;;20.90;3.60;226.50;231333.00;;;;5054407;28;20213;-70
2022/05/23 10:13:24;;;;;;;0.00;0.00;;;20.90;1.00;226.50;231333.00;;;;5054573;28;20217;-70
2022/05/23 10:15:57;;;;;;;0.00;0.00;;;21.00;1.20;226.50;231333.00;;;;5053863;28;20198;-69
2022/05/23 10:18:30;;;;;;;0.00;0.00;;;21.10;2.80;226.50;231333.00;;;;5054338;28;20679;-69
2022/05/23 10:21:02;;;;;;;0.00;0.00;;;21.10;3.70;226.50;231333.00;;;;5054265;28;20837;-69
2022/05/23 10:23:33;;;;;;;0.00;0.00;;;21.20;1.00;226.50;231333.00;;;;5054181;28;20551;-69
2022/05/23 10:26:12;;;;;;;0.00;0.00;;;21.10;1.00;226.50;231333.00;;;;5054322;28;20209;-69
2022/05/23 10:28:53;;;;;;;0.00;0.00;;;21.10;1.00;226.50;231333.00;;;;5055349;28;20754;-69
2022/05/23 10:31:33;;;;;;;0.00;0.00;;;21.10;1.00;226.50;231333.00;;;;5055020;28;20600;-69
2022/05/23 10:34:13;;;;;;;0.00;0.00;;;21.20;1.10;226.50;231333.00;;;;5055339;28;20230;-70
2022/05/23 10:36:47;;;;;;;0.00;0.00;;;21.30;1.00;226.50;231333.00;;;;5053331;28;20213;-70
2022/05/23 10:42:18;;;;;;;0.00;0.00;;;21.50;1.00;226.50;231333.00;;;;5054023;28;20194;-70
2022/05/23 10:45:13;;;;;;;0.00;0.00;;;21.50;1.00;226.50;231333.00;;;;5053530;28;20214;-71
2022/05/23 10:48:07;;;;;;;0.00;0.00;;;21.50;1.00;226.50;231333.00;;;;5052823;28;20203;-69
2022/05/23 10:50:47;;;;;;;0.00;0.00;;;21.80;1.00;226.50;231333.00;;;;5052859;28;20210;-69
2022/05/23 10:53:31;;;;;;;0.00;0.00;;;22.40;1.00;226.50;231333.00;;;;5053944;28;20214;-69
2022/05/23 10:56:21;;;;;;;0.00;0.00;;;22.80;1.00;226.50;231333.00;;;;5053137;28;20202;-70
2022/05/23 10:58:57;;;;;;;0.00;0.00;;;23.20;1.00;226.50;231333.00;;;;5053371;28;20655;-70
2022/05/23 11:01:57;;;;;;;0.00;0.00;;;23.60;1.00;226.50;231333.00;;;;5053360;28;20197;-70
2022/05/23 11:04:50;;;;;;;0.00;0.00;;;23.50;1.00;226.50;231333.00;;;;5053063;28;20680;-70
2022/05/23 11:07:43;;;;;;;0.00;0.00;;;23.20;1.00;226.50;231333.00;;;;5052395;28;20252;-70
2022/05/23 11:10:29;;;;;;;0.00;0.00;;;23.00;1.00;226.50;231333.00;;;;5052918;28;20239;-70
2022/05/23 11:13:26;;;;;;;0.00;0.00;;;22.70;1.00;226.50;231333.00;;;;5052936;28;20310;-70
2022/05/23 11:16:10;;;;;;;0.00;0.00;;;22.20;1.00;226.50;231333.00;;;;5052351;28;20213;-70
2022/05/23 11:19:01;;;;;;;0.00;0.00;;;22.40;1.00;226.50;231333.00;;;;5052703;28;20664;-70
2022/05/23 11:21:42;;;;;;;0.00;0.00;;;22.40;1.00;226.50;231333.00;;;;5052436;28;20210;-70
2022/05/23 11:24:15;;;;;;;0.00;0.00;;;22.10;1.00;226.50;231333.00;;;;5052910;28;20202;-69
2022/05/23 11:26:52;;;;;;;0.00;0.00;;;22.10;1.00;226.50;231333.00;;;;5052213;28;20206;-70
2022/05/23 11:35:10;;;;;;;0.00;0.00;;;22.10;1.00;226.50;231333.00;;;;5052753;28;20198;-70
2022/05/23 11:37:44;;;;;;;0.00;0.00;;;22.00;1.00;226.50;231333.00;;;;5051725;28;20201;-69
2022/05/23 11:40:49;;;;;;;0.00;0.00;;;21.90;1.00;226.50;231333.00;;;;5052500;28;20206;-70
2022/05/23 11:43:23;;;;;;;0.00;0.00;;;21.90;1.00;226.50;231333.00;;;;5052882;28;20213;-69
2022/05/23 11:45:59;;;;;;;0.00;0.00;;;22.00;1.00;226.50;231333.00;;;;5052101;28;20691;-71
2022/05/23 11:48:43;;;;;;;0.00;0.00;;;22.20;1.00;226.50;231333.00;;;;5053178;28;20561;-70
2022/05/23 11:51:36;;;;;;;0.00;0.00;;;22.50;1.00;226.50;231333.00;;;;5051091;28;20265;-69
2022/05/23 11:54:10;;;;;;;0.00;0.00;;;22.60;1.00;226.50;231333.00;;;;5052696;28;20594;-70
2022/05/23 11:57:18;;;;;;;0.00;0.00;;;22.70;1.00;226.50;231333.00;;;;5050220;28;20300;-72
2022/05/23 12:00:37;;;;;;;0.00;0.00;;;22.80;1.00;226.50;231333.00;;;;5052153;28;20217;-70
2022/05/23 12:03:16;;;;;;;0.00;0.00;;;22.80;1.00;226.50;231333.00;;;;5052589;28;20187;-69
2022/05/23 12:05:45;;;;;;;0.00;0.00;;;22.90;1.00;226.50;231333.00;;;;5051866;28;20186;-70
2022/05/23 12:08:39;;;;;;;0.00;0.00;;;23.00;1.00;226.50;231333.00;;;;5052522;28;20547;-70
2022/05/23 12:11:22;;;;;;;0.00;0.00;;;22.80;1.00;226.50;231333.00;;;;5051204;28;20256;-69
2022/05/23 12:13:58;;;;;;;0.00;0.00;;;22.90;1.00;226.50;231333.00;;;;5052388;28;20230;-70
2022/05/23 12:17:08;;;;;;;0.00;0.00;;;23.10;1.00;226.50;231333.00;;;;5051405;28;20591;-69
2022/05/23 12:19:55;;;;;;;0.00;0.00;;;23.50;1.00;226.50;231333.00;;;;5051787;28;20267;-70